Terminal Aerodrome Forecast
Issued by NWS

Home | Current Version | Previous Version | Text Only | Print | Product List | Glossary On
Versions: 1 2 3 4 5 6 7 8 9 10 11 12 13 14 15 16 17 18 19 20 21 22 23 24 25 26 27 28 29 30 31 32 33 34 35 36 37 38 39 40
000
FTUS45 KCYS 201356 AAA
TAFAIA
TAF AMD
KAIA 201356Z 2014/2112 06003KT 3SM BR SCT001
     FM201500 05012KT P6SM SCT025
     FM201900 07017G27KT P6SM SCT050
     FM210200 07015KT P6SM VCTS BKN050CB
     FM210600 10009KT P6SM BKN080
     FM211000 06010KT 3SM BR BKN025 BKN100=

USA.gov is the U.S. government's official web portal to all federal, state and local government web resources and services.